Time;durP1;ratioP1;P1;durP2;ratioP2;P2;SDS_P1;SDS_P2;PMS_P1;PMS_P2;Temp;Humidity;BMP_temperature;BMP_pressure;BME280_temperature;BME280_humidity;BME280_pressure;Samples;Min_cycle;Max_cycle;Signal;HPM_P1;HPM_P2
2022/02/18 00:01:01;;;;;;;8.07;2.70;;;;;;;3.83;94.02;99653.06;5058398;28;20048;-80
2022/02/18 00:03:28;;;;;;;10.67;3.30;;;;;;;3.82;92.35;99646.97;5071640;28;20048;-81
2022/02/18 00:05:58;;;;;;;5.53;1.90;;;;;;;3.85;92.76;99654.78;5087266;28;20121;-82
2022/02/18 00:08:28;;;;;;;4.30;2.03;;;;;;;3.78;93.46;99660.06;5054061;28;20530;-81
2022/02/18 00:10:54;;;;;;;8.50;2.73;;;;;;;3.87;92.48;99666.09;5068620;28;20056;-81
2022/02/18 00:13:22;;;;;;;7.10;2.67;;;;;;;3.81;92.36;99676.59;5054407;28;20044;-82
2022/02/18 00:15:49;;;;;;;5.77;2.93;;;;;;;3.89;92.12;99682.63;5053055;28;20040;-82
2022/02/18 00:18:16;;;;;;;8.03;2.40;;;;;;;3.88;92.62;99686.13;5058919;28;20052;-81
2022/02/18 00:20:45;;;;;;;11.03;2.73;;;;;;;3.96;92.45;99699.13;5055180;28;20082;-81
2022/02/18 00:23:12;;;;;;;11.90;2.53;;;;;;;4.12;91.26;99694.59;5072530;28;20040;-82
2022/02/18 00:25:42;;;;;;;9.60;2.63;;;;;;;4.09;91.78;99720.75;5083693;28;20635;-80
2022/02/18 00:28:09;;;;;;;7.90;2.27;;;;;;;4.11;92.19;99708.53;5083667;28;20054;-80
2022/02/18 00:30:42;;;;;;;6.03;2.03;;;;;;;4.05;92.15;99713.84;5085914;28;20044;-81
2022/02/18 00:33:10;;;;;;;5.30;1.67;;;;;;;4.05;91.10;99713.84;5068183;28;20093;-81
2022/02/18 00:35:37;;;;;;;9.40;2.10;;;;;;;4.03;92.09;99715.59;5081088;28;20437;-82
2022/02/18 00:38:04;;;;;;;6.93;1.90;;;;;;;3.98;92.70;99727.84;5055611;28;20048;-82
2022/02/18 00:40:32;;;;;;;7.60;2.73;;;;;;;3.91;93.31;99711.34;5063984;28;20078;-80
2022/02/18 00:42:59;;;;;;;5.17;1.93;;;;;;;3.83;94.30;99724.47;5073219;28;20037;-80
2022/02/18 00:45:27;;;;;;;6.37;2.13;;;;;;;3.87;94.86;99720.97;5082827;28;20040;-81
2022/02/18 00:47:54;;;;;;;3.80;1.50;;;;;;;3.78;95.24;99731.47;5087481;28;20130;-81
2022/02/18 00:50:22;;;;;;;8.90;2.13;;;;;;;3.72;96.20;99734.16;5073329;28;20040;-81
2022/02/18 00:52:48;;;;;;;5.83;1.63;;;;;;;3.70;96.67;99741.13;5070717;28;20044;-82
2022/02/18 00:55:21;;;;;;;4.57;1.80;;;;;;;3.64;98.54;99736.81;5061665;28;20074;-82
2022/02/18 00:57:48;;;;;;;3.33;1.53;;;;;;;3.65;99.04;99750.75;5073463;28;20492;-81
2022/02/18 01:00:16;;;;;;;5.93;1.63;;;;;;;3.56;100.00;99743.84;5074408;28;20048;-80
2022/02/18 01:02:44;;;;;;;5.03;1.60;;;;;;;3.49;100.00;99756.94;5090302;28;20036;-80
2022/02/18 01:05:12;;;;;;;3.33;1.80;;;;;;;3.48;100.00;99748.25;5079613;28;20541;-80
2022/02/18 01:07:40;;;;;;;5.73;1.77;;;;;;;3.39;100.00;99749.16;5059691;28;20142;-81
2022/02/18 01:10:07;;;;;;;6.10;2.00;;;;;;;3.32;100.00;99750.06;5053566;28;20660;-81
2022/02/18 01:12:34;;;;;;;7.97;2.77;;;;;;;3.36;100.00;99756.13;5057396;28;20044;-81
2022/02/18 01:15:06;;;;;;;6.47;2.30;;;;;;;3.22;100.00;99752.75;5057219;28;20044;-81
2022/02/18 01:17:32;;;;;;;9.63;2.77;;;;;;;3.34;100.00;99761.38;5073618;28;20048;-82
2022/02/18 01:19:59;;;;;;;8.43;1.80;;;;;;;3.17;100.00;99752.75;5090727;28;20040;-79
2022/02/18 01:22:26;;;;;;;6.93;2.10;;;;;;;3.24;100.00;99749.25;5073018;28;20500;-80
2022/02/18 01:24:52;;;;;;;6.93;2.27;;;;;;;3.17;100.00;99757.13;5059007;28;20040;-81
2022/02/18 01:27:19;;;;;;;6.10;2.37;;;;;;;3.25;100.00;99769.25;5074275;28;20046;-79
2022/02/18 01:29:46;;;;;;;11.73;2.00;;;;;;;3.17;100.00;99778.84;5107145;22;20085;-78
2022/02/18 01:32:12;;;;;;;12.73;2.57;;;;;;;3.07;100.00;99778.03;5002914;28;20091;-79
2022/02/18 01:34:40;;;;;;;6.80;2.17;;;;;;;3.03;100.00;99772.84;5030021;28;20046;-79
2022/02/18 01:37:07;;;;;;;7.63;2.20;;;;;;;3.13;100.00;99769.31;5029191;28;20111;-79
2022/02/18 01:39:34;;;;;;;8.20;1.97;;;;;;;3.07;100.00;99782.38;5013640;28;20053;-78
2022/02/18 01:42:01;;;;;;;8.93;2.83;;;;;;;3.05;100.00;99782.41;5000745;28;20045;-79
2022/02/18 01:44:39;;;;;;;13.17;2.70;;;;;;;3.02;100.00;99771.09;5013575;28;20072;-78
2022/02/18 01:47:10;;;;;;;11.10;2.40;;;;;;;3.11;100.00;99752.78;5008660;28;20107;-78
2022/02/18 01:49:36;;;;;;;9.40;2.23;;;;;;;3.05;100.00;99760.66;5005475;28;20053;-79
2022/02/18 01:52:03;;;;;;;13.20;3.03;;;;;;;3.09;100.00;99744.09;4986480;28;20038;-78
2022/02/18 01:54:30;;;;;;;7.70;2.97;;;;;;;2.99;100.00;99753.72;5027079;28;20056;-79
2022/02/18 01:56:57;;;;;;;8.03;2.60;;;;;;;3.05;100.00;99774.56;4998381;28;20484;-79
2022/02/18 01:59:26;;;;;;;6.30;3.70;;;;;;;3.07;100.00;99772.81;4989986;28;20103;-78
2022/02/18 02:01:53;;;;;;;9.17;2.40;;;;;;;3.08;100.00;99773.69;5008536;28;20053;-79
2022/02/18 02:04:19;;;;;;;7.33;2.20;;;;;;;3.18;100.00;99792.78;5000669;28;20500;-78
2022/02/18 02:06:50;;;;;;;8.50;2.53;;;;;;;3.16;100.00;99790.19;5016822;28;20044;-79
2022/02/18 02:09:16;;;;;;;9.83;2.67;;;;;;;3.24;98.11;99793.63;5011335;28;20073;-78
2022/02/18 02:11:43;;;;;;;8.57;2.60;;;;;;;3.13;98.57;99805.00;5000354;28;20042;-78
2022/02/18 02:14:10;;;;;;;9.47;2.60;;;;;;;3.29;96.46;99809.28;5016148;28;20048;-77
2022/02/18 02:16:37;;;;;;;4.77;1.60;;;;;;;3.32;96.19;99790.97;5016407;28;20068;-79
2022/02/18 02:19:03;;;;;;;4.00;1.43;;;;;;;3.35;97.58;99788.34;4995441;28;20096;-78
2022/02/18 02:21:30;;;;;;;6.87;1.50;;;;;;;3.29;98.00;99804.06;4990938;28;20041;-77
2022/02/18 02:23:58;;;;;;;5.93;2.07;;;;;;;3.30;97.87;99801.44;5016342;28;20136;-79
2022/02/18 02:26:25;;;;;;;5.10;1.60;;;;;;;3.25;98.24;99805.78;4998801;28;20587;-77
2022/02/18 02:28:51;;;;;;;5.10;2.33;;;;;;;3.24;99.48;99795.38;4995950;28;20568;-78
2022/02/18 02:31:22;;;;;;;2.27;1.90;;;;;;;3.26;100.00;99806.66;5000806;28;20045;-80
2022/02/18 02:33:48;;;;;;;6.67;1.80;;;;;;;3.24;100.00;99808.41;5006739;28;20037;-80
2022/02/18 02:36:15;;;;;;;6.00;1.83;;;;;;;3.18;100.00;99814.53;5004731;28;20059;-81
2022/02/18 02:38:42;;;;;;;5.67;1.87;;;;;;;3.10;100.00;99819.75;5036897;28;20038;-80
2022/02/18 02:41:08;;;;;;;8.03;2.00;;;;;;;3.00;100.00;99825.91;5017957;28;20050;-80
2022/02/18 02:43:35;;;;;;;8.93;3.00;;;;;;;2.93;100.00;99836.34;5011601;28;20042;-79
2022/02/18 02:46:01;;;;;;;7.80;2.77;;;;;;;2.88;100.00;99839.00;5003650;28;20041;-80
2022/02/18 02:48:28;;;;;;;8.23;2.13;;;;;;;2.90;100.00;99831.16;5018305;28;20045;-80
2022/02/18 02:50:55;;;;;;;5.43;1.93;;;;;;;2.78;100.00;99838.16;5019070;28;20048;-80
2022/02/18 02:53:25;;;;;;;6.60;1.83;;;;;;;2.72;100.00;99840.75;5027205;28;20033;-79
2022/02/18 02:55:52;;;;;;;8.83;1.97;;;;;;;2.71;100.00;99844.25;5001212;28;20065;-80
2022/02/18 02:58:18;;;;;;;7.87;2.73;;;;;;;2.94;100.00;99835.47;5037947;28;20049;-79
2022/02/18 03:00:45;;;;;;;9.90;2.17;;;;;;;2.73;100.00;99839.03;5022476;28;20044;-80
2022/02/18 03:03:12;;;;;;;7.20;2.63;;;;;;;2.61;100.00;99839.91;4985514;28;20404;-80
2022/02/18 03:05:39;;;;;;;10.17;2.60;;;;;;;2.71;100.00;99838.16;5020626;28;20045;-78
2022/02/18 03:08:06;;;;;;;7.77;3.50;;;;;;;2.59;100.00;99835.56;5003888;28;20037;-79
2022/02/18 03:10:33;;;;;;;6.00;2.20;;;;;;;2.56;100.00;99839.03;5020641;28;20056;-80
2022/02/18 03:13:01;;;;;;;5.83;2.57;;;;;;;2.49;100.00;99845.13;5018983;28;20045;-80
2022/02/18 03:15:27;;;;;;;8.43;2.47;;;;;;;2.53;100.00;99842.53;5027998;28;20037;-79
2022/02/18 03:17:54;;;;;;;7.20;2.20;;;;;;;2.55;100.00;99847.75;5019962;28;20068;-78
2022/02/18 03:20:21;;;;;;;11.33;3.40;;;;;;;2.41;100.00;99854.69;5014185;28;20476;-78
2022/02/18 03:22:48;;;;;;;8.63;1.93;;;;;;;2.38;100.00;99859.91;5000708;28;20045;-80
2022/02/18 03:25:16;;;;;;;14.20;3.00;;;;;;;2.40;100.00;99855.56;5018359;28;20128;-79
2022/02/18 03:27:43;;;;;;;7.50;2.30;;;;;;;2.41;100.00;99846.88;5020332;28;20053;-78
2022/02/18 03:30:10;;;;;;;6.63;1.87;;;;;;;2.37;100.00;99845.16;5020361;28;20041;-79
2022/02/18 03:32:37;;;;;;;6.03;2.67;;;;;;;2.41;100.00;99847.75;5000074;28;20484;-80
2022/02/18 03:35:04;;;;;;;6.63;2.60;;;;;;;2.30;100.00;99844.28;5002703;28;20053;-80
2022/02/18 03:37:31;;;;;;;4.67;2.10;;;;;;;2.29;100.00;99854.72;5020444;28;20065;-80
2022/02/18 03:39:58;;;;;;;10.60;2.80;;;;;;;2.26;100.00;99859.03;5004597;28;20058;-78
2022/02/18 03:42:25;;;;;;;11.50;2.87;;;;;;;2.26;100.00;99868.59;5019237;28;20034;-78
2022/02/18 03:44:51;;;;;;;6.63;2.20;;;;;;;2.25;100.00;99864.25;5019183;28;20045;-79
2022/02/18 03:47:18;;;;;;;11.53;2.30;;;;;;;2.32;100.00;99866.00;5016823;28;20045;-78
2022/02/18 03:49:44;;;;;;;7.33;2.57;;;;;;;2.30;100.00;99870.34;5020178;28;20037;-78
2022/02/18 03:52:16;;;;;;;9.93;2.00;;;;;;;2.26;100.00;99858.16;5005237;28;20045;-79
2022/02/18 03:54:43;;;;;;;4.87;1.90;;;;;;;2.22;100.00;99869.47;5038487;28;20037;-78
2022/02/18 03:57:09;;;;;;;10.40;2.30;;;;;;;2.25;100.00;99857.28;5036938;28;20516;-80
2022/02/18 03:59:36;;;;;;;15.10;2.10;;;;;;;2.32;100.00;99850.34;5002836;28;20045;-79
2022/02/18 04:02:03;;;;;;;6.70;2.10;;;;;;;2.29;100.00;99844.28;5019535;28;20053;-79
2022/02/18 04:04:29;;;;;;;5.10;2.33;;;;;;;2.30;100.00;99852.09;5002773;28;20523;-79
2022/02/18 04:06:56;;;;;;;8.00;1.90;;;;;;;2.23;100.00;99853.84;5013843;28;20045;-79
2022/02/18 04:09:23;;;;;;;7.43;2.30;;;;;;;2.17;100.00;99859.03;5017621;28;20044;-77
2022/02/18 04:11:49;;;;;;;5.60;2.13;;;;;;;2.18;100.00;99854.69;5018988;28;20045;-79
2022/02/18 04:14:16;;;;;;;10.23;3.73;;;;;;;2.16;100.00;99846.88;5019399;28;20069;-79
2022/02/18 04:16:43;;;;;;;8.77;2.20;;;;;;;2.15;100.00;99844.28;5034204;28;20029;-78
2022/02/18 04:19:09;;;;;;;7.47;1.60;;;;;;;2.18;100.00;99852.09;5018888;28;20068;-78
2022/02/18 04:21:36;;;;;;;5.97;1.93;;;;;;;2.19;100.00;99853.84;5002991;28;20546;-81
2022/02/18 04:24:03;;;;;;;8.37;2.47;;;;;;;2.18;100.00;99873.78;5001453;28;20064;-80
2022/02/18 04:26:29;;;;;;;9.30;2.50;;;;;;;2.12;100.00;99871.22;5017972;28;20045;-78
2022/02/18 04:28:56;;;;;;;10.73;2.40;;;;;;;2.15;100.00;99871.19;5018194;28;20192;-79
2022/02/18 04:31:23;;;;;;;6.67;2.43;;;;;;;2.14;100.00;99864.25;5022825;28;20061;-79
2022/02/18 04:33:50;;;;;;;9.43;3.23;;;;;;;2.10;100.00;99874.66;5022733;28;20037;-79
2022/02/18 04:36:17;;;;;;;6.97;2.00;;;;;;;2.18;100.00;99876.41;5004114;28;20084;-79
2022/02/18 04:38:43;;;;;;;8.17;2.30;;;;;;;2.16;100.00;99875.53;4986081;28;20665;-77
2022/02/18 04:41:10;;;;;;;7.07;2.27;;;;;;;2.18;100.00;99865.09;5012615;28;20037;-77
2022/02/18 04:43:37;;;;;;;6.10;2.30;;;;;;;2.13;100.00;99872.94;4979176;28;20042;-79
2022/02/18 04:46:04;;;;;;;7.30;2.37;;;;;;;2.19;100.00;99870.34;5001950;28;20045;-79
2022/02/18 04:48:31;;;;;;;9.17;2.80;;;;;;;2.19;100.00;99878.16;5003776;28;20088;-78
2022/02/18 04:50:58;;;;;;;16.93;4.20;;;;;;;2.14;100.00;99876.41;4995596;28;20050;-78
2022/02/18 04:53:38;;;;;;;28.80;3.60;;;;;;;2.12;100.00;99875.56;5037048;28;20048;-80
2022/02/18 04:56:07;;;;;;;19.13;7.47;;;;;;;2.24;100.00;99878.16;4998782;28;20056;-78
2022/02/18 04:58:35;;;;;;;19.67;8.07;;;;;;;2.22;100.00;99885.09;4966150;28;20144;-79
2022/02/18 05:01:04;;;;;;;12.87;5.33;;;;;;;2.23;100.00;99887.72;4997115;28;20405;-79
2022/02/18 05:03:31;;;;;;;12.50;3.30;;;;;;;2.30;100.00;99885.13;4987648;28;20084;-79
2022/02/18 05:05:58;;;;;;;8.53;3.00;;;;;;;2.28;100.00;99892.06;5008658;28;20045;-78
2022/02/18 05:08:24;;;;;;;7.30;2.70;;;;;;;2.20;100.00;99884.25;5013812;28;20049;-79
2022/02/18 05:10:51;;;;;;;11.07;2.50;;;;;;;2.26;100.00;99886.84;5012499;28;20056;-79
2022/02/18 05:13:19;;;;;;;13.90;2.97;;;;;;;2.23;100.00;99886.84;4995862;28;20041;-79
2022/02/18 05:15:45;;;;;;;9.90;2.37;;;;;;;2.25;100.00;99888.56;4992886;28;20072;-79
2022/02/18 05:18:12;;;;;;;28.10;12.00;;;;;;;2.33;100.00;99885.97;5011391;28;20500;-78
2022/02/18 05:20:39;;;;;;;10.37;3.63;;;;;;;2.25;100.00;99890.31;4995359;28;20510;-80
2022/02/18 05:23:05;;;;;;;8.90;2.90;;;;;;;2.22;100.00;99903.34;4996230;28;20060;-79
2022/02/18 05:25:34;;;;;;;7.87;2.10;;;;;;;2.23;100.00;99894.66;4997429;28;20052;-78
2022/02/18 05:28:03;;;;;;;7.47;2.70;;;;;;;2.26;100.00;99900.72;4995354;28;20045;-78
2022/02/18 05:30:30;;;;;;;11.10;2.33;;;;;;;2.33;100.00;99893.78;4993905;28;20042;-79
2022/02/18 05:32:57;;;;;;;7.90;2.03;;;;;;;2.26;100.00;99892.03;4979150;28;20050;-80
2022/02/18 05:35:24;;;;;;;8.83;2.60;;;;;;;2.29;100.00;99894.69;4995605;28;20056;-78
2022/02/18 05:37:50;;;;;;;10.90;2.97;;;;;;;2.29;100.00;99892.06;5012568;28;20463;-79
2022/02/18 05:40:17;;;;;;;11.43;2.80;;;;;;;2.31;100.00;99897.28;5000562;28;20053;-80
2022/02/18 05:42:44;;;;;;;11.40;3.53;;;;;;;2.26;100.00;99903.34;5015667;28;20741;-79
2022/02/18 05:45:11;;;;;;;12.20;3.90;;;;;;;2.31;100.00;99902.50;5016926;28;20053;-80
2022/02/18 05:47:38;;;;;;;8.43;3.17;;;;;;;2.28;100.00;99900.75;4991417;28;20053;-80
2022/02/18 05:50:12;;;;;;;8.68;4.05;;;;;;;2.21;100.00;99904.22;4989066;28;20049;-81
2022/02/18 05:52:41;;;;;;;13.10;5.27;;;;;;;2.30;100.00;99908.56;5010871;28;20072;-80
2022/02/18 05:55:08;;;;;;;11.50;3.47;;;;;;;2.29;100.00;99915.53;5010103;28;20053;-80
2022/02/18 05:57:38;;;;;;;8.77;4.60;;;;;;;2.29;100.00;99917.25;5013301;28;20139;-80
2022/02/18 06:00:09;;;;;;;10.90;3.37;;;;;;;2.25;100.00;99917.25;5015842;28;20611;-80
2022/02/18 06:02:38;;;;;;;9.50;3.13;;;;;;;2.33;100.00;99919.84;4998010;28;20053;-80
2022/02/18 06:05:06;;;;;;;6.83;2.97;;;;;;;2.31;100.00;99923.34;5013492;28;20042;-80
2022/02/18 06:07:33;;;;;;;10.90;3.00;;;;;;;2.33;100.00;99912.03;5012514;28;20046;-80
2022/02/18 06:10:00;;;;;;;7.77;2.40;;;;;;;2.30;100.00;99913.78;4996824;28;20109;-79
2022/02/18 06:12:27;;;;;;;9.63;3.37;;;;;;;2.31;100.00;99918.13;4998949;28;20048;-81
2022/02/18 06:14:54;;;;;;;8.20;2.70;;;;;;;2.27;100.00;99912.06;4997818;28;20049;-79
2022/02/18 06:17:20;;;;;;;7.03;2.30;;;;;;;2.33;100.00;99904.22;4993063;28;20045;-79
2022/02/18 06:19:47;;;;;;;11.73;3.93;;;;;;;2.39;100.00;99916.41;4976263;28;20107;-78
2022/02/18 06:22:15;;;;;;;5.70;2.40;;;;;;;2.36;100.00;99916.41;5011414;28;20052;-78
2022/02/18 06:24:43;;;;;;;11.90;2.60;;;;;;;2.45;100.00;99908.59;4998286;28;20042;-78
2022/02/18 06:27:10;;;;;;;10.33;2.63;;;;;;;2.48;100.00;99904.22;4990985;28;20543;-79
2022/02/18 06:29:38;;;;;;;9.23;2.00;;;;;;;2.44;100.00;99901.63;5017766;28;20133;-78
2022/02/18 06:32:07;;;;;;;8.90;2.33;;;;;;;2.55;100.00;99897.28;5027821;28;20049;-78
2022/02/18 06:34:34;;;;;;;6.17;2.50;;;;;;;2.51;100.00;99892.91;5011334;28;20076;-78
2022/02/18 06:37:01;;;;;;;7.30;2.43;;;;;;;2.56;100.00;99895.53;5011374;28;20060;-81
2022/02/18 06:39:28;;;;;;;6.87;2.40;;;;;;;2.54;100.00;99896.41;4993900;28;20050;-78
2022/02/18 06:41:54;;;;;;;12.50;2.60;;;;;;;2.63;100.00;99899.88;5014134;28;20060;-78
2022/02/18 06:44:21;;;;;;;14.27;3.20;;;;;;;2.66;100.00;99884.22;5032256;28;20037;-79
2022/02/18 06:46:48;;;;;;;9.60;2.83;;;;;;;2.64;100.00;99894.66;5013678;28;20107;-78
2022/02/18 06:49:14;;;;;;;9.50;2.97;;;;;;;2.69;100.00;99890.34;5013362;28;20041;-78
2022/02/18 06:51:41;;;;;;;7.57;2.40;;;;;;;2.68;100.00;99898.13;5012036;28;20042;-79
2022/02/18 06:54:08;;;;;;;6.83;2.93;;;;;;;2.75;100.00;99897.25;4994761;28;20095;-78
2022/02/18 06:56:54;;;;;;;7.15;2.15;;;;;;;2.70;100.00;99902.50;5013484;28;20045;-78
2022/02/18 06:59:22;;;;;;;7.90;3.37;;;;;;;2.82;100.00;99901.59;4997260;28;20111;-78
2022/02/18 07:01:53;;;;;;;10.10;2.60;;;;;;;2.83;100.00;99908.56;4995468;28;20447;-77
2022/02/18 07:04:24;;;;;;;7.07;2.40;;;;;;;2.88;100.00;99892.91;4999319;28;20042;-79
2022/02/18 07:06:51;;;;;;;9.27;2.80;;;;;;;2.95;100.00;99895.50;5010669;28;20049;-78
2022/02/18 07:09:17;;;;;;;6.23;2.10;;;;;;;3.04;100.00;99898.09;4988348;28;20049;-77
2022/02/18 07:11:44;;;;;;;11.40;2.80;;;;;;;3.07;100.00;99898.06;4997710;28;20514;-78
2022/02/18 07:14:11;;;;;;;5.83;2.27;;;;;;;3.04;100.00;99898.09;4996245;28;20045;-78
2022/02/18 07:16:41;;;;;;;8.67;2.63;;;;;;;3.14;100.00;99900.69;4997161;28;20053;-78
2022/02/18 07:19:10;;;;;;;7.90;2.50;;;;;;;3.15;100.00;99903.28;4995666;28;20038;-78
2022/02/18 07:21:37;;;;;;;10.50;3.17;;;;;;;3.12;100.00;99908.53;4997451;28;20392;-78
2022/02/18 07:24:06;;;;;;;10.97;2.50;;;;;;;3.25;100.00;99906.72;4996394;28;20068;-79
2022/02/18 07:26:32;;;;;;;11.00;3.17;;;;;;;3.21;100.00;99905.88;5013812;28;20059;-78
2022/02/18 07:28:59;;;;;;;6.37;3.07;;;;;;;3.32;100.00;99900.63;5010837;28;20136;-77
2022/02/18 07:31:26;;;;;;;9.70;2.73;;;;;;;3.30;100.00;99895.41;4989757;28;20045;-78
2022/02/18 07:33:53;;;;;;;19.53;3.10;;;;;;;3.26;100.00;99893.66;4997329;28;20458;-78
2022/02/18 07:36:20;;;;;;;7.00;2.10;;;;;;;3.34;100.00;99889.28;5013264;28;20440;-78
2022/02/18 07:38:47;;;;;;;8.77;2.93;;;;;;;3.39;100.00;99890.16;5013201;28;20692;-78
2022/02/18 07:41:13;;;;;;;8.67;3.50;;;;;;;3.42;100.00;99884.03;5014958;28;20106;-78
2022/02/18 07:43:40;;;;;;;5.93;2.80;;;;;;;3.45;100.00;99876.22;5014029;28;20131;-78
2022/02/18 07:46:07;;;;;;;10.03;3.07;;;;;;;3.52;100.00;99871.81;5012726;28;20041;-78
2022/02/18 07:48:34;;;;;;;8.23;3.23;;;;;;;3.59;100.00;99868.28;5006623;28;20041;-78
2022/02/18 07:51:03;;;;;;;12.63;3.53;;;;;;;3.64;100.00;99870.03;5011408;28;20046;-78
2022/02/18 07:53:29;;;;;;;8.57;2.80;;;;;;;3.72;100.00;99872.59;4997881;28;20046;-78
2022/02/18 07:55:56;;;;;;;12.10;4.00;;;;;;;3.72;100.00;99861.28;5033224;28;20623;-78
2022/02/18 07:58:23;;;;;;;8.77;3.37;;;;;;;3.72;100.00;99864.75;5028117;28;20053;-78
2022/02/18 08:00:51;;;;;;;12.17;3.20;;;;;;;3.78;100.00;99856.00;4995417;28;20136;-78
2022/02/18 08:03:18;;;;;;;9.03;3.33;;;;;;;3.93;100.00;99864.63;4977890;28;20044;-78
2022/02/18 08:05:45;;;;;;;9.17;3.40;;;;;;;3.95;100.00;99855.03;5011600;28;20049;-78
2022/02/18 08:08:12;;;;;;;12.10;4.33;;;;;;;4.00;100.00;99854.13;5030265;28;20055;-78
2022/02/18 08:10:38;;;;;;;11.93;3.63;;;;;;;3.99;100.00;99855.00;5002975;28;20045;-78
2022/02/18 08:13:07;;;;;;;14.37;3.60;;;;;;;4.05;100.00;99845.41;5010285;28;20069;-78
2022/02/18 08:15:33;;;;;;;14.47;4.83;;;;;;;4.10;100.00;99845.34;4993774;28;20049;-78
2022/02/18 08:18:00;;;;;;;8.57;3.23;;;;;;;4.10;100.00;99848.81;5007319;28;20052;-78
2022/02/18 08:20:27;;;;;;;13.33;4.80;;;;;;;4.14;100.00;99836.63;4993671;28;20158;-78
2022/02/18 08:22:54;;;;;;;7.93;3.40;;;;;;;4.14;100.00;99841.84;4996983;28;20462;-81
2022/02/18 08:25:20;;;;;;;8.30;4.33;;;;;;;4.21;100.00;99838.31;4997302;28;20045;-80
2022/02/18 08:27:47;;;;;;;7.63;3.50;;;;;;;4.27;100.00;99839.97;4997558;28;20048;-78
2022/02/18 08:30:14;;;;;;;7.27;4.23;;;;;;;4.35;100.00;99840.78;4994899;28;20046;-80
2022/02/18 08:32:41;;;;;;;11.40;3.90;;;;;;;4.52;100.00;99833.66;4996151;28;20053;-81
2022/02/18 08:35:07;;;;;;;13.70;5.27;;;;;;;4.57;100.00;99829.25;5015004;28;20037;-79
2022/02/18 08:37:34;;;;;;;9.83;4.00;;;;;;;4.59;100.00;99824.88;5012753;28;20099;-80
2022/02/18 08:40:01;;;;;;;8.67;4.30;;;;;;;4.63;100.00;99823.97;4977089;28;20096;-81
2022/02/18 08:42:28;;;;;;;9.07;4.80;;;;;;;4.66;100.00;99825.69;5009791;28;20045;-79
2022/02/18 08:44:55;;;;;;;9.70;5.17;;;;;;;4.74;100.00;99821.25;4981222;28;20107;-80
2022/02/18 08:47:21;;;;;;;11.20;5.50;;;;;;;4.71;100.00;99816.94;4992738;28;20049;-80
2022/02/18 08:49:48;;;;;;;11.50;4.23;;;;;;;4.74;100.00;99816.03;5011232;28;20045;-80
2022/02/18 08:52:15;;;;;;;11.57;4.30;;;;;;;4.81;100.00;99804.59;5011204;28;20508;-81
2022/02/18 08:54:42;;;;;;;7.97;4.23;;;;;;;4.79;100.00;99811.59;5011264;28;20045;-80
2022/02/18 08:57:10;;;;;;;8.83;4.10;;;;;;;4.89;100.00;99805.38;5009766;28;20053;-81
2022/02/18 08:59:38;;;;;;;7.93;4.33;;;;;;;4.86;100.00;99804.53;5008902;28;20140;-80
2022/02/18 09:02:05;;;;;;;11.30;5.17;;;;;;;4.82;100.00;99802.84;5006147;28;20053;-79
2022/02/18 09:04:32;;;;;;;11.57;5.03;;;;;;;4.89;100.00;99804.53;5008328;28;20666;-80
2022/02/18 09:06:58;;;;;;;12.87;5.40;;;;;;;4.98;100.00;99802.66;4996363;28;20546;-79
2022/02/18 09:09:25;;;;;;;12.23;5.20;;;;;;;5.00;100.00;99798.28;5012753;28;20045;-79
2022/02/18 09:11:52;;;;;;;11.70;5.03;;;;;;;5.17;100.00;99794.59;5003457;28;20122;-81
2022/02/18 09:14:18;;;;;;;16.30;5.10;;;;;;;5.26;100.00;99790.09;4992654;28;20046;-79
2022/02/18 09:16:46;;;;;;;11.03;5.80;;;;;;;5.35;100.00;99783.88;4993062;28;20041;-80
2022/02/18 09:19:12;;;;;;;12.60;6.30;;;;;;;5.43;100.00;99776.78;4977445;28;20099;-81
2022/02/18 09:21:39;;;;;;;16.10;6.30;;;;;;;5.61;99.85;99779.13;4993254;28;20045;-80
2022/02/18 09:24:06;;;;;;;12.60;5.30;;;;;;;5.72;99.78;99780.72;4997067;28;20046;-81
2022/02/18 09:26:33;;;;;;;10.27;4.83;;;;;;;5.90;99.14;99775.22;5013784;28;20041;-81
2022/02/18 09:28:59;;;;;;;14.83;6.17;;;;;;;5.91;99.57;99772.63;4992387;28;20141;-82
2022/02/18 09:31:26;;;;;;;14.53;6.07;;;;;;;6.14;99.00;99760.91;5005554;28;20045;-81
2022/02/18 09:33:53;;;;;;;12.77;5.40;;;;;;;6.23;98.95;99759.88;5013465;28;20041;-80
2022/02/18 09:36:20;;;;;;;9.90;4.47;;;;;;;6.32;98.48;99755.31;5013309;28;20052;-79
2022/02/18 09:38:47;;;;;;;11.27;5.03;;;;;;;6.41;97.07;99747.28;4993046;28;20057;-80
2022/02/18 09:41:13;;;;;;;11.00;5.13;;;;;;;6.45;95.09;99729.72;4982784;28;20045;-79
2022/02/18 09:43:41;;;;;;;13.40;5.73;;;;;;;6.52;95.94;99723.47;5011147;28;20053;-80
2022/02/18 09:46:09;;;;;;;9.63;5.03;;;;;;;6.55;94.53;99718.16;5012312;28;20052;-79
2022/02/18 09:48:36;;;;;;;8.30;4.67;;;;;;;6.55;93.62;99719.91;4981176;28;20056;-79
2022/02/18 09:51:02;;;;;;;12.83;5.67;;;;;;;6.54;92.80;99712.94;4997962;28;20056;-81
2022/02/18 09:53:29;;;;;;;12.40;5.73;;;;;;;6.55;94.11;99715.53;5014200;28;20044;-80
2022/02/18 09:55:56;;;;;;;9.77;4.40;;;;;;;6.62;94.32;99722.38;5096933;23;20506;-81
2022/02/18 09:58:24;;;;;;;13.60;5.87;;;;;;;6.62;95.76;99714.50;4981759;28;20093;-81
2022/02/18 10:00:51;;;;;;;9.77;4.77;;;;;;;6.62;94.01;99711.03;4958046;28;20069;-81
2022/02/18 10:03:19;;;;;;;14.00;5.50;;;;;;;6.57;92.92;99708.50;4975018;28;20053;-80
2022/02/18 10:05:46;;;;;;;13.10;5.30;;;;;;;6.56;95.07;99708.50;4976342;28;20048;-80
2022/02/18 10:08:18;;;;;;;10.83;4.03;;;;;;;6.54;95.96;99700.69;4989447;28;20100;-80
2022/02/18 10:11:10;;;;;;;14.97;5.23;;;;;;;6.56;96.03;99693.66;4972926;28;20675;-81
2022/02/18 10:13:39;;;;;;;10.73;4.20;;;;;;;6.59;95.83;99688.34;4990389;28;20571;-82
2022/02/18 10:16:17;;;;;;;14.83;5.07;;;;;;;6.63;97.28;99668.13;4964501;28;20715;-82
2022/02/18 10:18:48;;;;;;;11.77;5.03;;;;;;;6.68;97.28;99672.41;4980594;28;20115;-81
2022/02/18 10:21:22;;;;;;;10.33;5.07;;;;;;;6.73;93.96;99662.69;4980848;28;20049;-81
2022/02/18 10:23:50;;;;;;;11.33;4.87;;;;;;;6.71;95.17;99668.84;4996747;28;20088;-82
2022/02/18 10:26:32;;;;;;;8.23;4.43;;;;;;;6.62;94.80;99655.91;4980806;28;20046;-81
2022/02/18 10:28:59;;;;;;;13.73;5.17;;;;;;;6.61;96.33;99647.19;4980374;28;20050;-82
2022/02/18 10:31:25;;;;;;;13.87;5.67;;;;;;;6.66;95.17;99647.97;4976914;28;20478;-82
2022/02/18 10:34:06;;;;;;;12.37;4.97;;;;;;;6.68;96.11;99627.78;4961422;28;20069;-82
2022/02/18 10:36:44;;;;;;;16.23;6.90;;;;;;;6.67;93.89;99620.81;4977233;28;20417;-82
2022/02/18 10:39:29;;;;;;;8.60;5.63;;;;;;;6.56;94.29;99621.91;4997560;28;20045;-81
2022/02/18 10:42:01;;;;;;;8.13;5.00;;;;;;;6.59;96.30;99604.38;4981452;28;20042;-82
2022/02/18 10:44:30;;;;;;;10.77;5.27;;;;;;;6.55;96.06;99607.94;4980690;28;20053;-82
2022/02/18 10:46:57;;;;;;;9.00;5.20;;;;;;;6.60;96.20;99608.72;4994869;28;20042;-81
2022/02/18 10:49:26;;;;;;;11.27;5.37;;;;;;;6.56;96.01;99601.81;4967467;28;20101;-80
2022/02/18 10:51:54;;;;;;;13.30;5.67;;;;;;;6.63;96.81;99600.75;4966387;28;20461;-81
2022/02/18 10:54:33;;;;;;;14.73;5.40;;;;;;;6.70;96.13;99598.88;4966167;28;20069;-81
2022/02/18 10:57:16;;;;;;;14.03;6.10;;;;;;;6.71;97.47;99587.47;4960502;28;20050;-82
2022/02/18 10:59:43;;;;;;;11.65;5.95;;;;;;;6.76;96.02;99577.75;4992769;28;20065;-81
2022/02/18 11:02:10;;;;;;;10.13;4.87;;;;;;;6.79;95.22;99577.66;4979796;28;20046;-82
2022/02/18 11:04:37;;;;;;;14.33;5.47;;;;;;;6.86;93.01;99576.66;4976944;28;20093;-82
2022/02/18 11:07:17;;;;;;;12.33;5.50;;;;;;;6.86;92.77;99563.50;4993289;28;20038;-81
2022/02/18 11:09:46;;;;;;;10.23;4.93;;;;;;;6.82;91.10;99566.25;4976921;28;20047;-82
2022/02/18 11:12:13;;;;;;;8.93;5.00;;;;;;;6.72;91.87;99555.94;4961106;28;20050;-81
2022/02/18 11:14:45;;;;;;;9.47;5.10;;;;;;;6.64;92.96;99547.41;4976911;28;20039;-81
2022/02/18 11:17:13;;;;;;;14.13;5.40;;;;;;;6.61;93.51;99536.97;4980673;28;20600;-81
2022/02/18 11:19:44;;;;;;;10.90;4.90;;;;;;;6.64;92.20;99525.50;4976726;28;20052;-81
2022/02/18 11:22:13;;;;;;;7.85;4.57;;;;;;;6.64;92.64;99517.66;4964406;28;20050;-82
2022/02/18 11:24:45;;;;;;;8.87;4.57;;;;;;;6.64;92.70;99515.91;4979005;28;20034;-82
2022/02/18 11:27:12;;;;;;;10.37;4.73;;;;;;;6.74;91.54;99511.31;4983595;28;20069;-82
2022/02/18 11:29:39;;;;;;;7.20;4.33;;;;;;;6.66;91.64;99503.63;4974053;28;20042;-82
2022/02/18 11:32:20;;;;;;;9.07;3.90;;;;;;;6.70;91.11;99496.53;4996338;28;20493;-82
2022/02/18 11:35:37;;;;;;;7.53;3.90;;;;;;;6.65;92.64;99485.28;4996368;28;20038;-82